sensor_id;sensor_type;location;lat;lon;timestamp;pressure;altitude;pressure_sealevel;temperature;humidity
77147;BME280;66121;52.584;9.694;2023-03-01T00:01:36;102829.00;;;-3.88;82.61
77147;BME280;66121;52.584;9.694;2023-03-01T00:04:02;102830.09;;;-3.89;81.68
77147;BME280;66121;52.584;9.694;2023-03-01T00:06:27;102829.25;;;-3.90;80.75
77147;BME280;66121;52.584;9.694;2023-03-01T00:08:53;102835.59;;;-3.84;80.82
77147;BME280;66121;52.584;9.694;2023-03-01T00:11:28;102834.06;;;-3.80;79.35
77147;BME280;66121;52.584;9.694;2023-03-01T00:13:56;102835.22;;;-3.88;80.22
77147;BME280;66121;52.584;9.694;2023-03-01T00:16:25;102836.88;;;-3.87;80.13
77147;BME280;66121;52.584;9.694;2023-03-01T00:18:51;102841.91;;;-4.02;81.98
77147;BME280;66121;52.584;9.694;2023-03-01T00:21:17;102841.34;;;-4.04;82.13
77147;BME280;66121;52.584;9.694;2023-03-01T00:23:42;102841.31;;;-3.93;80.03
77147;BME280;66121;52.584;9.694;2023-03-01T00:26:11;102834.41;;;-3.88;79.51
77147;BME280;66121;52.584;9.694;2023-03-01T00:28:37;102829.38;;;-3.97;81.10
77147;BME280;66121;52.584;9.694;2023-03-01T00:31:04;102831.00;;;-3.96;81.24
77147;BME280;66121;52.584;9.694;2023-03-01T00:33:29;102837.22;;;-3.95;80.08
77147;BME280;66121;52.584;9.694;2023-03-01T00:35:57;102833.72;;;-4.07;80.65
77147;BME280;66121;52.584;9.694;2023-03-01T00:38:23;102828.91;;;-4.17;81.25
77147;BME280;66121;52.584;9.694;2023-03-01T00:40:48;102828.84;;;-4.28;82.53
77147;BME280;66121;52.584;9.694;2023-03-01T00:43:13;102820.44;;;-4.32;82.86
77147;BME280;66121;52.584;9.694;2023-03-01T00:45:39;102827.25;;;-4.29;82.83
77147;BME280;66121;52.584;9.694;2023-03-01T00:48:04;102826.53;;;-4.25;81.93
77147;BME280;66121;52.584;9.694;2023-03-01T00:50:30;102826.66;;;-4.08;80.72
77147;BME280;66121;52.584;9.694;2023-03-01T00:52:55;102831.47;;;-4.10;80.25
77147;BME280;66121;52.584;9.694;2023-03-01T00:55:21;102824.44;;;-4.11;79.82
77147;BME280;66121;52.584;9.694;2023-03-01T00:57:47;102827.13;;;-4.11;79.55
77147;BME280;66121;52.584;9.694;2023-03-01T01:00:12;102828.66;;;-4.04;79.86
77147;BME280;66121;52.584;9.694;2023-03-01T01:02:38;102826.66;;;-4.20;79.51
77147;BME280;66121;52.584;9.694;2023-03-01T01:05:04;102826.19;;;-4.17;80.22
77147;BME280;66121;52.584;9.694;2023-03-01T01:07:29;102822.09;;;-4.19;80.10
77147;BME280;66121;52.584;9.694;2023-03-01T01:09:54;102818.91;;;-4.28;80.85
77147;BME280;66121;52.584;9.694;2023-03-01T01:12:20;102820.66;;;-4.33;81.63
77147;BME280;66121;52.584;9.694;2023-03-01T01:14:45;102796.97;;;-4.43;82.44
77147;BME280;66121;52.584;9.694;2023-03-01T01:17:11;102802.84;;;-4.34;81.60
77147;BME280;66121;52.584;9.694;2023-03-01T01:19:37;102800.63;;;-4.26;79.80
77147;BME280;66121;52.584;9.694;2023-03-01T01:22:02;102796.53;;;-4.28;79.75
77147;BME280;66121;52.584;9.694;2023-03-01T01:24:28;102795.84;;;-4.24;79.85
77147;BME280;66121;52.584;9.694;2023-03-01T01:26:53;102796.41;;;-4.33;80.57
77147;BME280;66121;52.584;9.694;2023-03-01T01:29:19;102784.47;;;-4.37;80.60
77147;BME280;66121;52.584;9.694;2023-03-01T01:31:44;102789.47;;;-4.41;80.77
77147;BME280;66121;52.584;9.694;2023-03-01T01:34:15;102789.13;;;-4.33;80.79
77147;BME280;66121;52.584;9.694;2023-03-01T01:36:41;102790.34;;;-4.29;80.44
77147;BME280;66121;52.584;9.694;2023-03-01T01:39:06;102782.00;;;-4.39;80.90
77147;BME280;66121;52.584;9.694;2023-03-01T01:41:32;102786.09;;;-4.36;80.28
77147;BME280;66121;52.584;9.694;2023-03-01T01:44:20;102781.63;;;-4.31;81.11
77147;BME280;66121;52.584;9.694;2023-03-01T01:46:53;102775.66;;;-4.44;80.53
77147;BME280;66121;52.584;9.694;2023-03-01T01:51:51;102792.66;;;-4.44;80.40
77147;BME280;66121;52.584;9.694;2023-03-01T01:54:27;102788.19;;;-4.50;80.47
77147;BME280;66121;52.584;9.694;2023-03-01T01:57:00;102788.31;;;-4.57;81.94
77147;BME280;66121;52.584;9.694;2023-03-01T01:59:28;102784.72;;;-4.69;83.04
77147;BME280;66121;52.584;9.694;2023-03-01T02:01:54;102779.00;;;-4.72;83.29
77147;BME280;66121;52.584;9.694;2023-03-01T02:04:20;102772.31;;;-4.81;83.01
77147;BME280;66121;52.584;9.694;2023-03-01T02:06:53;102776.75;;;-4.75;81.46
77147;BME280;66121;52.584;9.694;2023-03-01T02:09:22;102778.31;;;-4.68;82.25
77147;BME280;66121;52.584;9.694;2023-03-01T02:11:48;102765.41;;;-4.77;81.21
77147;BME280;66121;52.584;9.694;2023-03-01T02:14:15;102769.13;;;-4.78;82.81
77147;BME280;66121;52.584;9.694;2023-03-01T02:16:41;102761.53;;;-4.81;83.15
77147;BME280;66121;52.584;9.694;2023-03-01T02:19:08;102772.31;;;-4.81;82.98
77147;BME280;66121;52.584;9.694;2023-03-01T02:21:44;102763.72;;;-4.90;84.06
77147;BME280;66121;52.584;9.694;2023-03-01T02:24:28;102769.25;;;-4.85;83.17
77147;BME280;66121;52.584;9.694;2023-03-01T02:26:57;102774.19;;;-4.82;81.28
77147;BME280;66121;52.584;9.694;2023-03-01T02:29:24;102760.94;;;-4.83;81.68
77147;BME280;66121;52.584;9.694;2023-03-01T02:31:51;102752.84;;;-4.83;81.97
77147;BME280;66121;52.584;9.694;2023-03-01T02:34:22;102761.88;;;-4.78;81.96
77147;BME280;66121;52.584;9.694;2023-03-01T02:37:03;102765.44;;;-4.66;82.06
77147;BME280;66121;52.584;9.694;2023-03-01T02:39:37;102758.63;;;-4.80;81.39
77147;BME280;66121;52.584;9.694;2023-03-01T02:42:11;102757.31;;;-4.77;82.11
77147;BME280;66121;52.584;9.694;2023-03-01T02:44:37;102765.38;;;-4.89;82.66
77147;BME280;66121;52.584;9.694;2023-03-01T02:47:03;102761.59;;;-4.99;82.57
77147;BME280;66121;52.584;9.694;2023-03-01T02:49:31;102762.63;;;-5.00;82.54
77147;BME280;66121;52.584;9.694;2023-03-01T02:55:05;102750.97;;;-4.94;81.56
77147;BME280;66121;52.584;9.694;2023-03-01T02:57:34;102751.09;;;-4.89;81.31
77147;BME280;66121;52.584;9.694;2023-03-01T03:00:05;102740.19;;;-4.94;82.53
77147;BME280;66121;52.584;9.694;2023-03-01T03:02:32;102735.72;;;-5.00;82.91
77147;BME280;66121;52.584;9.694;2023-03-01T03:05:10;102724.13;;;-5.01;82.62
77147;BME280;66121;52.584;9.694;2023-03-01T03:07:39;102725.31;;;-4.97;83.03
77147;BME280;66121;52.584;9.694;2023-03-01T03:10:06;102716.06;;;-5.01;82.02
77147;BME280;66121;52.584;9.694;2023-03-01T03:12:33;102716.66;;;-4.99;82.02
77147;BME280;66121;52.584;9.694;2023-03-01T03:14:58;102709.50;;;-5.05;81.76
77147;BME280;66121;52.584;9.694;2023-03-01T03:17:24;102704.56;;;-5.08;81.18
77147;BME280;66121;52.584;9.694;2023-03-01T03:19:49;102720.25;;;-5.05;82.67
77147;BME280;66121;52.584;9.694;2023-03-01T03:22:14;102716.16;;;-5.07;81.40
77147;BME280;66121;52.584;9.694;2023-03-01T03:24:40;102705.97;;;-5.05;81.16
77147;BME280;66121;52.584;9.694;2023-03-01T03:27:06;102707.00;;;-5.18;80.88
77147;BME280;66121;52.584;9.694;2023-03-01T03:29:32;102695.31;;;-5.24;81.63
77147;BME280;66121;52.584;9.694;2023-03-01T03:31:57;102709.22;;;-5.15;81.10
77147;BME280;66121;52.584;9.694;2023-03-01T03:34:23;102710.97;;;-5.21;80.66
77147;BME280;66121;52.584;9.694;2023-03-01T03:36:53;102714.13;;;-5.24;81.30
77147;BME280;66121;52.584;9.694;2023-03-01T03:39:24;102714.78;;;-5.28;81.50
77147;BME280;66121;52.584;9.694;2023-03-01T03:41:49;102720.19;;;-5.28;81.31
77147;BME280;66121;52.584;9.694;2023-03-01T03:44:14;102709.63;;;-5.41;81.50
77147;BME280;66121;52.584;9.694;2023-03-01T03:46:39;102717.91;;;-5.43;82.88
77147;BME280;66121;52.584;9.694;2023-03-01T03:49:05;102715.06;;;-5.48;81.99
77147;BME280;66121;52.584;9.694;2023-03-01T03:51:30;102709.66;;;-5.59;83.36
77147;BME280;66121;52.584;9.694;2023-03-01T03:53:55;102708.31;;;-5.68;82.62
77147;BME280;66121;52.584;9.694;2023-03-01T03:56:21;102713.84;;;-5.63;83.20
77147;BME280;66121;52.584;9.694;2023-03-01T03:58:53;102706.97;;;-5.59;83.73
77147;BME280;66121;52.584;9.694;2023-03-01T04:01:19;102700.50;;;-5.58;82.30
77147;BME280;66121;52.584;9.694;2023-03-01T04:03:45;102710.75;;;-5.49;82.68
77147;BME280;66121;52.584;9.694;2023-03-01T04:06:12;102707.13;;;-5.43;82.41
77147;BME280;66121;52.584;9.694;2023-03-01T04:08:38;102708.56;;;-5.40;82.18
77147;BME280;66121;52.584;9.694;2023-03-01T04:11:04;102711.09;;;-5.45;83.27
77147;BME280;66121;52.584;9.694;2023-03-01T04:13:48;102711.56;;;-5.48;83.25
77147;BME280;66121;52.584;9.694;2023-03-01T04:16:14;102699.38;;;-5.51;81.50
77147;BME280;66121;52.584;9.694;2023-03-01T04:18:39;102714.38;;;-5.43;81.90
77147;BME280;66121;52.584;9.694;2023-03-01T04:21:04;102697.91;;;-5.47;81.90
77147;BME280;66121;52.584;9.694;2023-03-01T04:23:30;102710.41;;;-5.41;80.91
77147;BME280;66121;52.584;9.694;2023-03-01T04:25:57;102716.44;;;-5.57;82.63
77147;BME280;66121;52.584;9.694;2023-03-01T04:28:28;102718.19;;;-5.51;82.82
77147;BME280;66121;52.584;9.694;2023-03-01T04:30:55;102717.16;;;-5.50;81.54
77147;BME280;66121;52.584;9.694;2023-03-01T04:33:22;102713.78;;;-5.45;81.99
77147;BME280;66121;52.584;9.694;2023-03-01T04:35:47;102701.13;;;-5.56;81.00
77147;BME280;66121;52.584;9.694;2023-03-01T04:38:17;102702.22;;;-5.46;80.79
77147;BME280;66121;52.584;9.694;2023-03-01T04:40:43;102714.91;;;-5.35;81.36
77147;BME280;66121;52.584;9.694;2023-03-01T04:43:09;102704.69;;;-5.44;81.87
77147;BME280;66121;52.584;9.694;2023-03-01T04:45:35;102695.25;;;-5.35;81.47
77147;BME280;66121;52.584;9.694;2023-03-01T04:48:01;102704.91;;;-5.46;83.38
77147;BME280;66121;52.584;9.694;2023-03-01T04:50:27;102697.38;;;-5.55;83.28
77147;BME280;66121;52.584;9.694;2023-03-01T04:52:52;102709.78;;;-5.54;83.61
77147;BME280;66121;52.584;9.694;2023-03-01T04:55:18;102706.28;;;-5.55;84.74
77147;BME280;66121;52.584;9.694;2023-03-01T04:57:43;102710.38;;;-5.52;84.55
77147;BME280;66121;52.584;9.694;2023-03-01T05:00:13;102704.41;;;-5.54;84.96
77147;BME280;66121;52.584;9.694;2023-03-01T05:02:56;102706.66;;;-5.51;85.11
77147;BME280;66121;52.584;9.694;2023-03-01T05:05:31;102697.03;;;-5.59;84.29
77147;BME280;66121;52.584;9.694;2023-03-01T05:07:59;102697.47;;;-5.62;83.74
77147;BME280;66121;52.584;9.694;2023-03-01T05:10:26;102699.03;;;-5.54;83.76
77147;BME280;66121;52.584;9.694;2023-03-01T05:12:51;102699.53;;;-5.46;82.74
77147;BME280;66121;52.584;9.694;2023-03-01T05:15:20;102707.97;;;-5.42;82.11
77147;BME280;66121;52.584;9.694;2023-03-01T05:17:47;102701.84;;;-5.49;81.79
77147;BME280;66121;52.584;9.694;2023-03-01T05:20:13;102700.78;;;-5.48;82.48
77147;BME280;66121;52.584;9.694;2023-03-01T05:22:38;102692.00;;;-5.55;82.74
77147;BME280;66121;52.584;9.694;2023-03-01T05:25:04;102681.63;;;-5.52;82.87
77147;BME280;66121;52.584;9.694;2023-03-01T05:27:29;102685.78;;;-5.56;81.63
77147;BME280;66121;52.584;9.694;2023-03-01T05:29:55;102685.78;;;-5.56;81.61
77147;BME280;66121;52.584;9.694;2023-03-01T05:32:21;102678.13;;;-5.70;81.12
77147;BME280;66121;52.584;9.694;2023-03-01T05:34:46;102669.56;;;-5.79;81.11
77147;BME280;66121;52.584;9.694;2023-03-01T05:37:12;102690.84;;;-5.77;82.93
77147;BME280;66121;52.584;9.694;2023-03-01T05:39:39;102688.13;;;-5.89;82.19
77147;BME280;66121;52.584;9.694;2023-03-01T05:42:04;102690.00;;;-5.90;82.10
77147;BME280;66121;52.584;9.694;2023-03-01T05:44:30;102692.00;;;-5.85;82.84
77147;BME280;66121;52.584;9.694;2023-03-01T05:46:56;102687.06;;;-5.88;82.28
77147;BME280;66121;52.584;9.694;2023-03-01T05:49:21;102691.22;;;-5.74;82.29
77147;BME280;66121;52.584;9.694;2023-03-01T05:51:52;102696.59;;;-5.74;82.96
77147;BME280;66121;52.584;9.694;2023-03-01T05:54:19;102682.88;;;-5.84;82.87
77147;BME280;66121;52.584;9.694;2023-03-01T05:56:45;102684.63;;;-5.90;83.41
77147;BME280;66121;52.584;9.694;2023-03-01T05:59:11;102693.56;;;-5.96;84.48
77147;BME280;66121;52.584;9.694;2023-03-01T06:01:37;102695.31;;;-6.01;83.97
77147;BME280;66121;52.584;9.694;2023-03-01T06:04:03;102694.91;;;-5.86;83.45
77147;BME280;66121;52.584;9.694;2023-03-01T06:06:28;102692.56;;;-5.83;82.72
77147;BME280;66121;52.584;9.694;2023-03-01T06:08:54;102696.75;;;-5.69;82.31
77147;BME280;66121;52.584;9.694;2023-03-01T06:11:20;102697.56;;;-5.68;81.64
77147;BME280;66121;52.584;9.694;2023-03-01T06:13:45;102704.44;;;-5.72;81.44
77147;BME280;66121;52.584;9.694;2023-03-01T06:16:12;102701.81;;;-5.79;82.09
77147;BME280;66121;52.584;9.694;2023-03-01T06:18:37;102697.94;;;-5.83;81.27
77147;BME280;66121;52.584;9.694;2023-03-01T06:21:04;102695.63;;;-5.79;81.48
77147;BME280;66121;52.584;9.694;2023-03-01T06:23:30;102706.09;;;-5.71;81.20
77147;BME280;66121;52.584;9.694;2023-03-01T06:25:55;102701.97;;;-5.74;81.35
77147;BME280;66121;52.584;9.694;2023-03-01T06:28:20;102699.16;;;-5.79;82.01
77147;BME280;66121;52.584;9.694;2023-03-01T06:30:46;102699.88;;;-5.72;81.46
77147;BME280;66121;52.584;9.694;2023-03-01T06:33:11;102704.56;;;-5.67;82.13
77147;BME280;66121;52.584;9.694;2023-03-01T06:35:37;102695.38;;;-5.78;82.34
77147;BME280;66121;52.584;9.694;2023-03-01T06:38:04;102699.63;;;-5.70;82.45
77147;BME280;66121;52.584;9.694;2023-03-01T06:40:30;102699.28;;;-5.74;82.34
77147;BME280;66121;52.584;9.694;2023-03-01T06:42:56;102693.31;;;-5.76;82.93
77147;BME280;66121;52.584;9.694;2023-03-01T06:45:22;102699.19;;;-5.67;82.83
77147;BME280;66121;52.584;9.694;2023-03-01T06:47:48;102696.78;;;-5.57;81.82
77147;BME280;66121;52.584;9.694;2023-03-01T06:50:18;102700.75;;;-5.60;83.09
77147;BME280;66121;52.584;9.694;2023-03-01T06:52:43;102690.97;;;-5.54;83.10
77147;BME280;66121;52.584;9.694;2023-03-01T06:55:10;102697.06;;;-5.47;83.16
77147;BME280;66121;52.584;9.694;2023-03-01T06:57:36;102695.22;;;-5.47;83.01
77147;BME280;66121;52.584;9.694;2023-03-01T07:00:03;102699.44;;;-5.39;83.41
77147;BME280;66121;52.584;9.694;2023-03-01T07:02:28;102695.38;;;-5.30;83.89
77147;BME280;66121;52.584;9.694;2023-03-01T07:04:54;102691.34;;;-5.21;83.32
77147;BME280;66121;52.584;9.694;2023-03-01T07:07:19;102694.50;;;-5.12;83.55
77147;BME280;66121;52.584;9.694;2023-03-01T07:09:45;102705.09;;;-4.88;82.38
77147;BME280;66121;52.584;9.694;2023-03-01T07:12:11;102694.50;;;-4.71;82.31
77147;BME280;66121;52.584;9.694;2023-03-01T07:14:36;102693.06;;;-4.50;81.46
77147;BME280;66121;52.584;9.694;2023-03-01T07:17:01;102689.56;;;-4.28;81.37
77147;BME280;66121;52.584;9.694;2023-03-01T07:19:27;102690.81;;;-4.19;81.58
77147;BME280;66121;52.584;9.694;2023-03-01T07:21:52;102701.59;;;-4.19;81.55
77147;BME280;66121;52.584;9.694;2023-03-01T07:24:18;102693.28;;;-4.06;81.94
77147;BME280;66121;52.584;9.694;2023-03-01T07:26:43;102690.38;;;-4.04;81.67
77147;BME280;66121;52.584;9.694;2023-03-01T07:29:10;102702.88;;;-3.98;80.88
77147;BME280;66121;52.584;9.694;2023-03-01T07:31:35;102687.31;;;-4.08;81.54
77147;BME280;66121;52.584;9.694;2023-03-01T07:34:02;102697.69;;;-3.88;82.39
77147;BME280;66121;52.584;9.694;2023-03-01T07:36:27;102691.13;;;-3.80;81.80
77147;BME280;66121;52.584;9.694;2023-03-01T07:38:53;102681.63;;;-3.83;82.27
77147;BME280;66121;52.584;9.694;2023-03-01T07:41:20;102686.72;;;-3.58;81.99
77147;BME280;66121;52.584;9.694;2023-03-01T07:43:45;102681.88;;;-3.56;82.40
77147;BME280;66121;52.584;9.694;2023-03-01T07:46:11;102685.31;;;-3.61;81.61
77147;BME280;66121;52.584;9.694;2023-03-01T07:48:37;102679.78;;;-3.54;82.99
77147;BME280;66121;52.584;9.694;2023-03-01T07:51:04;102687.53;;;-3.58;81.62
77147;BME280;66121;52.584;9.694;2023-03-01T07:53:30;102690.34;;;-3.53;82.41
77147;BME280;66121;52.584;9.694;2023-03-01T07:56:05;102694.63;;;-3.40;82.90
77147;BME280;66121;52.584;9.694;2023-03-01T07:58:30;102699.69;;;-3.44;82.69
77147;BME280;66121;52.584;9.694;2023-03-01T08:00:55;102689.28;;;-3.52;83.25
77147;BME280;66121;52.584;9.694;2023-03-01T08:03:21;102689.31;;;-3.35;83.74
77147;BME280;66121;52.584;9.694;2023-03-01T08:05:46;102682.88;;;-3.34;84.01
77147;BME280;66121;52.584;9.694;2023-03-01T08:08:11;102693.34;;;-3.21;84.02
77147;BME280;66121;52.584;9.694;2023-03-01T08:10:37;102681.44;;;-3.08;83.12
77147;BME280;66121;52.584;9.694;2023-03-01T08:13:02;102684.31;;;-2.98;83.32
77147;BME280;66121;52.584;9.694;2023-03-01T08:15:27;102688.00;;;-2.88;83.33
77147;BME280;66121;52.584;9.694;2023-03-01T08:17:53;102674.13;;;-2.80;83.27
77147;BME280;66121;52.584;9.694;2023-03-01T08:20:18;102676.16;;;-2.87;83.37
77147;BME280;66121;52.584;9.694;2023-03-01T08:22:43;102689.00;;;-2.77;83.63
77147;BME280;66121;52.584;9.694;2023-03-01T08:25:09;102679.31;;;-2.56;83.68
77147;BME280;66121;52.584;9.694;2023-03-01T08:27:34;102674.41;;;-2.43;83.93
77147;BME280;66121;52.584;9.694;2023-03-01T08:30:00;102671.78;;;-2.38;82.47
77147;BME280;66121;52.584;9.694;2023-03-01T08:32:25;102675.91;;;-2.14;83.34
77147;BME280;66121;52.584;9.694;2023-03-01T08:34:50;102672.00;;;-2.01;81.21
77147;BME280;66121;52.584;9.694;2023-03-01T08:37:16;102675.59;;;-1.74;81.89
77147;BME280;66121;52.584;9.694;2023-03-01T08:39:41;102670.38;;;-1.32;80.77
77147;BME280;66121;52.584;9.694;2023-03-01T08:42:06;102655.41;;;-0.81;78.34
77147;BME280;66121;52.584;9.694;2023-03-01T08:44:31;102673.31;;;-0.43;76.45
77147;BME280;66121;52.584;9.694;2023-03-01T08:46:57;102658.41;;;0.06;76.01
77147;BME280;66121;52.584;9.694;2023-03-01T08:49:23;102664.59;;;0.69;75.63
77147;BME280;66121;52.584;9.694;2023-03-01T08:51:48;102670.09;;;1.24;71.19
77147;BME280;66121;52.584;9.694;2023-03-01T08:54:16;102670.88;;;1.55;68.50
77147;BME280;66121;52.584;9.694;2023-03-01T08:56:42;102664.75;;;2.08;66.71
77147;BME280;66121;52.584;9.694;2023-03-01T08:59:09;102665.47;;;2.39;64.89
77147;BME280;66121;52.584;9.694;2023-03-01T09:01:42;102665.25;;;2.74;64.49
77147;BME280;66121;52.584;9.694;2023-03-01T09:04:11;102669.78;;;2.89;63.49
77147;BME280;66121;52.584;9.694;2023-03-01T09:06:37;102662.34;;;3.33;62.44
77147;BME280;66121;52.584;9.694;2023-03-01T09:09:04;102663.31;;;4.00;61.28
77147;BME280;66121;52.584;9.694;2023-03-01T09:11:29;102667.78;;;4.56;60.54
77147;BME280;66121;52.584;9.694;2023-03-01T09:13:55;102662.97;;;4.48;58.86
77147;BME280;66121;52.584;9.694;2023-03-01T09:16:21;102667.34;;;4.87;56.92
77147;BME280;66121;52.584;9.694;2023-03-01T09:18:52;102653.59;;;5.10;57.21
77147;BME280;66121;52.584;9.694;2023-03-01T09:21:19;102659.78;;;5.16;55.63
77147;BME280;66121;52.584;9.694;2023-03-01T09:23:47;102656.13;;;5.53;55.33
77147;BME280;66121;52.584;9.694;2023-03-01T09:26:15;102658.31;;;5.83;53.90
77147;BME280;66121;52.584;9.694;2023-03-01T09:28:42;102651.53;;;5.94;54.33
77147;BME280;66121;52.584;9.694;2023-03-01T09:31:08;102652.88;;;5.97;53.04
77147;BME280;66121;52.584;9.694;2023-03-01T09:33:33;102660.00;;;5.19;54.60
77147;BME280;66121;52.584;9.694;2023-03-01T09:36:00;102654.22;;;5.53;53.62
77147;BME280;66121;52.584;9.694;2023-03-01T09:38:26;102658.38;;;5.64;53.68
77147;BME280;66121;52.584;9.694;2023-03-01T09:40:52;102646.56;;;5.96;53.42
77147;BME280;66121;52.584;9.694;2023-03-01T09:43:44;102650.19;;;5.32;54.31
77147;BME280;66121;52.584;9.694;2023-03-01T09:46:13;102650.75;;;5.61;54.64
77147;BME280;66121;52.584;9.694;2023-03-01T09:48:45;102639.06;;;6.15;52.45
77147;BME280;66121;52.584;9.694;2023-03-01T09:51:22;102644.69;;;6.46;51.52
77147;BME280;66121;52.584;9.694;2023-03-01T09:53:49;102642.19;;;6.36;51.49
77147;BME280;66121;52.584;9.694;2023-03-01T09:57:15;102641.97;;;6.46;51.35
77147;BME280;66121;52.584;9.694;2023-03-01T09:59:28;102646.03;;;7.06;52.62
77147;BME280;66121;52.584;9.694;2023-03-01T10:04:26;102643.88;;;7.17;48.14
77147;BME280;66121;52.584;9.694;2023-03-01T10:09:38;102636.84;;;7.33;50.19
77147;BME280;66121;52.584;9.694;2023-03-01T10:12:09;102625.81;;;7.47;45.67
77147;BME280;66121;52.584;9.694;2023-03-01T10:17:36;102638.31;;;7.08;47.14
77147;BME280;66121;52.584;9.694;2023-03-01T10:20:22;102635.78;;;7.73;45.61
77147;BME280;66121;52.584;9.694;2023-03-01T10:22:48;102639.44;;;7.30;46.12
77147;BME280;66121;52.584;9.694;2023-03-01T10:28:31;102630.63;;;7.80;45.79
77147;BME280;66121;52.584;9.694;2023-03-01T10:31:03;102629.09;;;7.57;46.54
77147;BME280;66121;52.584;9.694;2023-03-01T10:33:31;102622.31;;;7.55;45.48
77147;BME280;66121;52.584;9.694;2023-03-01T10:35:57;102623.34;;;7.76;44.42
77147;BME280;66121;52.584;9.694;2023-03-01T10:38:23;102626.69;;;7.95;45.33
77147;BME280;66121;52.584;9.694;2023-03-01T10:43:19;102629.50;;;7.42;45.80
77147;BME280;66121;52.584;9.694;2023-03-01T10:45:44;102619.53;;;7.24;44.19
77147;BME280;66121;52.584;9.694;2023-03-01T10:48:20;102618.28;;;7.08;45.46
77147;BME280;66121;52.584;9.694;2023-03-01T10:53:34;102612.06;;;7.47;45.33
77147;BME280;66121;52.584;9.694;2023-03-01T10:56:11;102610.69;;;7.36;44.92
77147;BME280;66121;52.584;9.694;2023-03-01T10:58:58;102609.47;;;7.81;44.84
77147;BME280;66121;52.584;9.694;2023-03-01T11:01:26;102612.66;;;8.14;44.21
77147;BME280;66121;52.584;9.694;2023-03-01T11:04:13;102611.72;;;7.79;45.70
77147;BME280;66121;52.584;9.694;2023-03-01T11:06:40;102597.38;;;7.82;44.07
77147;BME280;66121;52.584;9.694;2023-03-01T11:09:17;102611.78;;;7.96;44.23
77147;BME280;66121;52.584;9.694;2023-03-01T11:11:44;102600.59;;;7.84;43.07
77147;BME280;66121;52.584;9.694;2023-03-01T11:14:19;102609.47;;;7.81;42.86
77147;BME280;66121;52.584;9.694;2023-03-01T11:16:47;102606.00;;;8.06;44.17
77147;BME280;66121;52.584;9.694;2023-03-01T11:19:17;102602.22;;;7.85;43.35
77147;BME280;66121;52.584;9.694;2023-03-01T11:24:37;102594.06;;;8.19;43.39
77147;BME280;66121;52.584;9.694;2023-03-01T11:27:12;102593.78;;;8.38;43.33
77147;BME280;66121;52.584;9.694;2023-03-01T11:29:54;102598.34;;;8.85;41.52
77147;BME280;66121;52.584;9.694;2023-03-01T11:32:23;102596.69;;;9.65;40.41
77147;BME280;66121;52.584;9.694;2023-03-01T11:35:13;102583.00;;;9.86;41.03
77147;BME280;66121;52.584;9.694;2023-03-01T11:37:58;102593.16;;;9.10;40.89
77147;BME280;66121;52.584;9.694;2023-03-01T11:40:32;102593.50;;;8.82;40.44
77147;BME280;66121;52.584;9.694;2023-03-01T11:52:15;102572.94;;;8.63;40.19
77147;BME280;66121;52.584;9.694;2023-03-01T12:03:14;102560.75;;;9.61;38.74
77147;BME280;66121;52.584;9.694;2023-03-01T12:08:41;102560.16;;;10.35;36.32
77147;BME280;66121;52.584;9.694;2023-03-01T12:13:59;102550.81;;;9.98;37.06
77147;BME280;66121;52.584;9.694;2023-03-01T12:16:41;102546.88;;;9.41;36.71
77147;BME280;66121;52.584;9.694;2023-03-01T12:28:00;102538.09;;;10.14;35.86
77147;BME280;66121;52.584;9.694;2023-03-01T12:30:57;102537.19;;;10.02;36.38
77147;BME280;66121;52.584;9.694;2023-03-01T12:33:38;102532.38;;;10.19;37.61
77147;BME280;66121;52.584;9.694;2023-03-01T12:45:01;102506.06;;;10.75;35.09
77147;BME280;66121;52.584;9.694;2023-03-01T12:47:41;102501.94;;;10.49;35.20
77147;BME280;66121;52.584;9.694;2023-03-01T12:50:20;102493.97;;;10.68;34.59
77147;BME280;66121;52.584;9.694;2023-03-01T12:52:52;102479.28;;;9.72;33.93
77147;BME280;66121;52.584;9.694;2023-03-01T12:55:28;102494.53;;;10.20;35.04
77147;BME280;66121;52.584;9.694;2023-03-01T13:01:00;102486.16;;;9.58;34.39
77147;BME280;66121;52.584;9.694;2023-03-01T13:03:38;102482.19;;;9.47;34.43
77147;BME280;66121;52.584;9.694;2023-03-01T13:06:20;102479.47;;;9.38;35.09
77147;BME280;66121;52.584;9.694;2023-03-01T13:11:21;102480.44;;;10.21;35.12
77147;BME280;66121;52.584;9.694;2023-03-01T13:13:46;102466.41;;;10.92;36.40
77147;BME280;66121;52.584;9.694;2023-03-01T13:19:18;102464.44;;;9.86;33.90
77147;BME280;66121;52.584;9.694;2023-03-01T13:21:46;102468.03;;;10.48;33.94
77147;BME280;66121;52.584;9.694;2023-03-01T13:24:27;102462.44;;;11.02;31.82
77147;BME280;66121;52.584;9.694;2023-03-01T13:34:51;102453.25;;;11.34;32.61
77147;BME280;66121;52.584;9.694;2023-03-01T13:37:26;102452.06;;;11.95;31.99
77147;BME280;66121;52.584;9.694;2023-03-01T13:39:52;102457.50;;;12.75;29.98
77147;BME280;66121;52.584;9.694;2023-03-01T13:47:43;102437.34;;;11.31;30.93
77147;BME280;66121;52.584;9.694;2023-03-01T13:50:19;102423.72;;;10.89;32.60
77147;BME280;66121;52.584;9.694;2023-03-01T13:53:05;102434.34;;;11.48;31.88
77147;BME280;66121;52.584;9.694;2023-03-01T13:55:40;102431.66;;;12.27;30.80
77147;BME280;66121;52.584;9.694;2023-03-01T13:58:16;102425.34;;;12.43;31.76
77147;BME280;66121;52.584;9.694;2023-03-01T14:00:44;102431.81;;;11.19;30.49
77147;BME280;66121;52.584;9.694;2023-03-01T14:03:16;102430.03;;;11.99;30.34
77147;BME280;66121;52.584;9.694;2023-03-01T14:08:30;102437.22;;;12.86;29.75
77147;BME280;66121;52.584;9.694;2023-03-01T14:13:36;102431.59;;;12.83;29.58
77147;BME280;66121;52.584;9.694;2023-03-01T14:16:16;102421.13;;;12.92;30.56
77147;BME280;66121;52.584;9.694;2023-03-01T14:19:01;102421.69;;;13.29;29.43
77147;BME280;66121;52.584;9.694;2023-03-01T14:21:29;102422.50;;;12.98;29.29
77147;BME280;66121;52.584;9.694;2023-03-01T14:23:55;102416.50;;;12.80;28.57
77147;BME280;66121;52.584;9.694;2023-03-01T14:26:22;102412.50;;;11.95;29.16
77147;BME280;66121;52.584;9.694;2023-03-01T14:28:48;102403.09;;;11.59;29.97
77147;BME280;66121;52.584;9.694;2023-03-01T14:31:38;102401.19;;;11.36;31.74
77147;BME280;66121;52.584;9.694;2023-03-01T14:34:04;102397.16;;;11.33;31.34